Time;durP1;ratioP1;P1;durP2;ratioP2;P2;SDS_P1;SDS_P2;PMS_P1;PMS_P2;Temp;Humidity;BMP_temperature;BMP_pressure;BME280_temperature;BME280_humidity;BME280_pressure;Samples;Min_cycle;Max_cycle;Signal;HPM_P1;HPM_P2
2021/01/01 00:01:26;;;;;;;;;;;;;;;0.78;100.00;99843.44;5052725;28;19971;-70
2021/01/01 00:03:52;;;;;;;;;;;;;;;0.79;100.00;99839.81;5052249;28;20401;-70
2021/01/01 00:06:19;;;;;;;;;;;;;;;0.76;100.00;99840.00;5052526;28;19925;-69
2021/01/01 00:08:44;;;;;;;;;;;;;;;0.76;100.00;99842.66;5052431;28;19979;-69
2021/01/01 00:11:13;;;;;;;;;;;;;;;0.77;100.00;99840.84;5052471;28;19971;-70
2021/01/01 00:13:39;;;;;;;;;;;;;;;0.78;100.00;99845.25;5052469;28;19968;-70
2021/01/01 00:16:05;;;;;;;;;;;;;;;0.76;100.00;99845.34;5052179;28;20337;-70
2021/01/01 00:18:30;;;;;;;;;;;;;;;0.75;100.00;99838.25;5052259;28;20012;-70
2021/01/01 00:20:56;;;;;;;;;;;;;;;0.72;100.00;99835.78;5050645;28;19936;-69
2021/01/01 00:23:23;;;;;;;;;;;;;;;0.70;100.00;99842.13;5050921;28;20465;-70
2021/01/01 00:25:49;;;;;;;;;;;;;;;0.65;100.00;99851.22;5051009;28;19929;-70
2021/01/01 00:28:14;;;;;;;;;;;;;;;0.63;100.00;99838.94;5052204;28;20309;-70
2021/01/01 00:30:40;;;;;;;;;;;;;;;0.60;100.00;99837.28;5051974;28;19925;-70
2021/01/01 00:33:06;;;;;;;;;;;;;;;0.60;100.00;99842.63;5051966;28;20290;-70
2021/01/01 00:35:32;;;;;;;;;;;;;;;0.57;100.00;99839.25;5051938;28;19925;-70
2021/01/01 00:37:57;;;;;;;;;;;;;;;0.56;100.00;99842.88;5051818;28;19928;-70
2021/01/01 00:40:24;;;;;;;;;;;;;;;0.54;100.00;99844.78;5051583;28;19959;-69
2021/01/01 00:42:50;;;;;;;;;;;;;;;0.54;100.00;99840.28;5052010;28;19971;-69
2021/01/01 00:45:16;;;;;;;;;;;;;;;0.52;100.00;99844.81;5051887;28;20348;-70
2021/01/01 00:47:45;;;;;;;;;;;;;;;0.51;100.00;99845.81;5051658;28;19925;-70
2021/01/01 00:50:11;;;;;;;;;;;;;;;0.53;100.00;99840.38;5051828;28;20018;-69
2021/01/01 00:52:37;;;;;;;;;;;;;;;0.54;100.00;99836.75;5051700;28;20015;-70
2021/01/01 00:55:04;;;;;;;;;;;;;;;0.54;100.00;99828.75;5051603;28;19925;-70
2021/01/01 00:57:30;;;;;;;;;;;;;;;0.53;100.00;99832.34;5051348;28;19979;-70
2021/01/01 00:59:56;;;;;;;;;;;;;;;0.52;100.00;99833.28;5050007;28;19963;-69
2021/01/01 01:02:22;;;;;;;;;;;;;;;0.50;100.00;99831.56;5051488;28;19998;-70
2021/01/01 01:04:48;;;;;;;;;;;;;;;0.50;100.00;99828.88;5051542;28;19925;-69
2021/01/01 01:07:14;;;;;;;;;;;;;;;0.48;100.00;99830.81;5051292;28;19929;-69
2021/01/01 01:09:39;;;;;;;;;;;;;;;0.49;100.00;99827.19;5051496;28;19925;-70
2021/01/01 01:12:05;;;;;;;;;;;;;;;0.48;100.00;99822.78;5051388;28;19931;-70
2021/01/01 01:14:32;;;;;;;;;;;;;;;0.49;100.00;99834.31;5051519;28;19925;-69
2021/01/01 01:16:58;;;;;;;;;;;;;;;0.46;100.00;99832.69;5051178;28;19925;-70
2021/01/01 01:19:23;;;;;;;;;;;;;;;0.46;100.00;99835.34;5051102;28;19929;-69
2021/01/01 01:21:49;;;;;;;;;;;;;;;0.42;100.00;99835.59;5051250;28;19933;-70
2021/01/01 01:24:15;;;;;;;;;;;;;;;0.41;100.00;99832.06;5051471;28;20401;-70
2021/01/01 01:26:41;;;;;;;;;;;;;;;0.40;100.00;99826.81;5051160;28;20002;-70
2021/01/01 01:29:06;;;;;;;;;;;;;;;0.40;100.00;99826.81;5051505;28;19986;-70
2021/01/01 01:31:33;;;;;;;;;;;;;;;0.38;100.00;99824.22;5049937;28;19944;-69
2021/01/01 01:33:59;;;;;;;;;;;;;;;0.34;100.00;99833.34;5051196;28;20409;-70
2021/01/01 01:36:25;;;;;;;;;;;;;;;0.35;100.00;99840.41;5053036;28;19929;-69
2021/01/01 01:38:50;;;;;;;;;;;;;;;0.33;100.00;99842.28;5054980;28;20413;-70
2021/01/01 01:41:16;;;;;;;;;;;;;;;0.32;100.00;99852.13;5055336;28;19924;-69
2021/01/01 01:43:42;;;;;;;;;;;;;;;0.30;100.00;99845.13;5055151;28;20421;-70
2021/01/01 01:46:08;;;;;;;;;;;;;;;0.29;100.00;99838.91;5054949;28;19924;-69
2021/01/01 01:48:36;;;;;;;;;;;;;;;0.29;100.00;99843.38;5055164;28;19951;-69
2021/01/01 01:51:02;;;;;;;;;;;;;;;0.29;100.00;99835.38;5055030;28;19967;-70
2021/01/01 01:53:32;;;;;;;;;;;;;;;0.30;100.00;99837.13;5055090;28;20016;-69
2021/01/01 01:55:58;;;;;;;;;;;;;;;0.31;100.00;99828.16;5054755;28;19967;-70
2021/01/01 01:58:24;;;;;;;;;;;;;;;0.34;100.00;99838.69;5054914;28;19977;-70
2021/01/01 02:00:57;;;;;;;;;;;;;;;0.32;100.00;99846.78;5054989;28;19932;-70
2021/01/01 02:03:23;;;;;;;;;;;;;;;0.32;100.00;99851.22;5051747;28;19924;-69
2021/01/01 02:05:50;;;;;;;;;;;;;;;0.33;100.00;99845.84;5054433;28;19928;-70
2021/01/01 02:08:15;;;;;;;;;;;;;;;0.32;100.00;99851.22;5055001;28;20019;-69
2021/01/01 02:10:41;;;;;;;;;;;;;;;0.33;100.00;99844.94;5054651;28;19925;-69
2021/01/01 02:13:08;;;;;;;;;;;;;;;0.36;100.00;99851.94;5054458;28;19925;-69
2021/01/01 02:15:34;;;;;;;;;;;;;;;0.36;100.00;99846.59;5054437;28;19978;-69
2021/01/01 02:18:00;;;;;;;;;;;;;;;0.36;100.00;99846.59;5054789;28;19924;-69
2021/01/01 02:20:26;;;;;;;;;;;;;;;0.33;100.00;99855.63;5054429;28;20078;-69
2021/01/01 02:22:52;;;;;;;;;;;;;;;0.32;100.00;99853.91;5054476;28;20023;-70
2021/01/01 02:25:18;;;;;;;;;;;;;;;0.35;100.00;99859.09;5054522;28;19960;-70
2021/01/01 02:27:44;;;;;;;;;;;;;;;0.36;100.00;99863.50;5054161;28;19933;-70
2021/01/01 02:30:11;;;;;;;;;;;;;;;0.38;100.00;99855.41;5053839;28;19986;-70
2021/01/01 02:32:36;;;;;;;;;;;;;;;0.37;100.00;99859.00;5054185;28;19972;-70
2021/01/01 02:35:02;;;;;;;;;;;;;;;0.32;100.00;99854.78;5054274;28;19931;-71
2021/01/01 02:37:28;;;;;;;;;;;;;;;0.31;100.00;99860.22;5053964;28;20019;-70
2021/01/01 02:39:55;;;;;;;;;;;;;;;0.32;100.00;99865.47;5054204;28;19996;-70
2021/01/01 02:42:21;;;;;;;;;;;;;;;0.29;100.00;99862.94;5054253;28;19925;-69
2021/01/01 02:44:47;;;;;;;;;;;;;;;0.27;100.00;99861.31;5054142;28;19929;-69
2021/01/01 02:47:13;;;;;;;;;;;;;;;0.27;100.00;99859.50;5052565;28;19964;-69
2021/01/01 02:49:39;;;;;;;;;;;;;;;0.27;100.00;99855.97;5054029;28;20039;-70
2021/01/01 02:52:05;;;;;;;;;;;;;;;0.27;100.00;99853.31;5053965;28;19925;-70
2021/01/01 02:54:31;;;;;;;;;;;;;;;0.28;100.00;99860.34;5054034;28;19956;-69
2021/01/01 02:56:57;;;;;;;;;;;;;;;0.23;100.00;99857.94;5053710;28;19932;-69
2021/01/01 02:59:23;;;;;;;;;;;;;;;0.21;100.00;99858.94;5053888;28;19957;-70
2021/01/01 03:01:50;;;;;;;;;;;;;;;0.19;100.00;99860.81;5053674;28;19947;-69
2021/01/01 03:04:16;;;;;;;;;;;;;;;0.18;100.00;99854.63;5053276;28;19929;-70
2021/01/01 03:06:42;;;;;;;;;;;;;;;0.20;100.00;99857.22;5053447;28;19924;-70
2021/01/01 03:09:08;;;;;;;;;;;;;;;0.21;100.00;99853.63;5053636;28;19932;-69
2021/01/01 03:11:34;;;;;;;;;;;;;;;0.21;100.00;99849.13;5053566;28;19931;-70
2021/01/01 03:14:00;;;;;;;;;;;;;;;0.20;100.00;99850.09;5053596;28;19929;-69
2021/01/01 03:16:26;;;;;;;;;;;;;;;0.21;100.00;99854.47;5053363;28;19964;-70
2021/01/01 03:18:52;;;;;;;;;;;;;;;0.24;100.00;99857.00;5053187;28;20415;-69
2021/01/01 03:21:18;;;;;;;;;;;;;;;0.28;100.00;99855.00;5053077;28;19925;-70
2021/01/01 03:23:43;;;;;;;;;;;;;;;0.29;100.00;99851.41;5053462;28;19925;-69
2021/01/01 03:26:09;;;;;;;;;;;;;;;0.29;100.00;99846.91;5053208;28;20043;-70
2021/01/01 03:28:35;;;;;;;;;;;;;;;0.32;100.00;99853.91;5053353;28;19924;-70
2021/01/01 03:31:02;;;;;;;;;;;;;;;0.31;100.00;99853.06;5053221;28;19925;-69
2021/01/01 03:33:27;;;;;;;;;;;;;;;0.33;100.00;99847.63;5053127;28;19975;-70
2021/01/01 03:35:53;;;;;;;;;;;;;;;0.34;100.00;99846.69;5052917;28;19929;-70
2021/01/01 03:38:19;;;;;;;;;;;;;;;0.32;100.00;99848.56;5053157;28;20294;-69
2021/01/01 03:40:45;;;;;;;;;;;;;;;0.29;100.00;99852.25;5052844;28;19925;-70
2021/01/01 03:43:11;;;;;;;;;;;;;;;0.30;100.00;99848.66;5052951;28;20371;-70
2021/01/01 03:45:37;;;;;;;;;;;;;;;0.28;100.00;99841.66;5052898;28;19928;-70
2021/01/01 03:48:04;;;;;;;;;;;;;;;0.26;100.00;99836.41;5052961;28;19929;-70
2021/01/01 03:50:30;;;;;;;;;;;;;;;0.23;100.00;99838.38;5052860;28;19972;-70
2021/01/01 03:52:56;;;;;;;;;;;;;;;0.22;100.00;99839.31;5052829;28;19929;-69
2021/01/01 03:55:22;;;;;;;;;;;;;;;0.18;100.00;99843.09;5052987;28;19931;-69
2021/01/01 03:57:47;;;;;;;;;;;;;;;0.18;100.00;99835.09;5052386;28;19944;-69
2021/01/01 04:00:14;;;;;;;;;;;;;;;0.15;100.00;99839.63;5052612;28;20382;-69
2021/01/01 04:02:39;;;;;;;;;;;;;;;0.16;100.00;99838.69;5052718;28;20359;-69
2021/01/01 04:05:07;;;;;;;;;;;;;;;0.16;100.00;99835.16;5052623;28;19971;-70
2021/01/01 04:07:33;;;;;;;;;;;;;;;0.18;100.00;99833.28;5049194;28;20019;-70
2021/01/01 04:09:58;;;;;;;;;;;;;;;0.17;100.00;99831.53;5052468;28;19978;-69
2021/01/01 04:12:24;;;;;;;;;;;;;;;0.18;100.00;99832.44;5052488;28;19928;-69
2021/01/01 04:14:50;;;;;;;;;;;;;;;0.18;100.00;99835.09;5052530;28;19935;-70
2021/01/01 04:17:16;;;;;;;;;;;;;;;0.14;100.00;99832.56;5051846;28;19924;-70
2021/01/01 04:19:42;;;;;;;;;;;;;;;0.11;100.00;99829.22;5052033;28;19924;-69
2021/01/01 04:22:09;;;;;;;;;;;;;;;0.08;100.00;99829.34;5052375;28;19925;-70
2021/01/01 04:24:35;;;;;;;;;;;;;;;0.06;100.00;99826.78;5052226;28;20016;-70
2021/01/01 04:27:00;;;;;;;;;;;;;;;0.08;100.00;99835.56;5051924;28;20406;-69
2021/01/01 04:29:26;;;;;;;;;;;;;;;0.10;100.00;99831.00;5052074;28;19971;-69
2021/01/01 04:31:52;;;;;;;;;;;;;;;0.07;100.00;99836.50;5052029;28;19925;-69
2021/01/01 04:34:18;;;;;;;;;;;;;;;0.08;100.00;99835.56;5051784;28;20374;-69
2021/01/01 04:36:44;;;;;;;;;;;;;;;0.06;100.00;99831.25;5051670;28;19924;-69
2021/01/01 04:39:10;;;;;;;;;;;;;;;0.05;100.00;99827.72;5051988;28;19925;-69
2021/01/01 04:41:36;;;;;;;;;;;;;;;0.04;100.00;99833.13;5051884;28;19970;-70
2021/01/01 04:44:03;;;;;;;;;;;;;;;-0.02;100.00;99831.66;5051865;28;19967;-69
2021/01/01 04:46:29;;;;;;;;;;;;;;;-0.01;100.00;99834.22;5051638;28;20015;-70
2021/01/01 04:48:56;;;;;;;;;;;;;;;-0.02;100.00;99834.31;5051721;28;19925;-69
2021/01/01 04:51:21;;;;;;;;;;;;;;;-0.03;100.00;99829.91;5051889;28;19925;-69
2021/01/01 04:53:47;;;;;;;;;;;;;;;-0.03;100.00;99836.13;5051739;28;19974;-69
2021/01/01 04:56:14;;;;;;;;;;;;;;;-0.05;100.00;99831.81;5051816;28;19925;-69
2021/01/01 04:58:40;;;;;;;;;;;;;;;-0.09;100.00;99841.78;5053018;28;20354;-69
2021/01/01 05:01:05;;;;;;;;;;;;;;;-0.08;100.00;99842.63;5051518;28;19932;-69
2021/01/01 05:03:31;;;;;;;;;;;;;;;-0.09;100.00;99838.25;5051501;28;19925;-70
2021/01/01 05:05:57;;;;;;;;;;;;;;;-0.09;100.00;99851.59;5051572;28;20298;-71
2021/01/01 05:08:23;;;;;;;;;;;;;;;-0.12;100.00;99851.72;5051385;28;19929;-69
2021/01/01 05:10:50;;;;;;;;;;;;;;;-0.10;100.00;99849.88;5050736;28;19925;-69
2021/01/01 05:13:17;;;;;;;;;;;;;;;-0.11;100.00;99856.97;5051356;28;20020;-69
2021/01/01 05:15:44;;;;;;;;;;;;;;;-0.10;100.00;99856.03;5051280;28;19960;-69
2021/01/01 05:18:20;;;;;;;;;;;;;;;-0.15;100.00;99863.41;5051343;28;20023;-69
2021/01/01 05:20:47;;;;;;;;;;;;;;;-0.15;100.00;99866.09;5051182;28;19925;-69
2021/01/01 05:23:18;;;;;;;;;;;;;;;-0.09;100.00;99864.94;5051490;28;19924;-69
2021/01/01 05:25:44;;;;;;;;;;;;;;;-0.09;100.00;99868.47;5051149;28;19967;-70
2021/01/01 05:28:12;;;;;;;;;;;;;;;-0.11;100.00;99874.81;5051262;28;19939;-69
2021/01/01 05:30:39;;;;;;;;;;;;;;;-0.16;100.00;99875.06;5051310;28;19924;-69
2021/01/01 05:33:07;;;;;;;;;;;;;;;-0.19;100.00;99877.84;5051141;28;20002;-69
2021/01/01 05:35:33;;;;;;;;;;;;;;;-0.18;100.00;99874.25;5051176;28;19967;-70
2021/01/01 05:38:14;;;;;;;;;;;;;;;-0.15;100.00;99873.25;5051139;28;20405;-69
2021/01/01 05:40:40;;;;;;;;;;;;;;;-0.18;100.00;99872.44;5051070;28;20069;-69
2021/01/01 05:43:16;;;;;;;;;;;;;;;-0.22;100.00;99870.88;5051175;28;19971;-69
2021/01/01 05:45:43;;;;;;;;;;;;;;;-0.24;100.00;99872.78;5050866;28;19979;-69
2021/01/01 05:48:09;;;;;;;;;;;;;;;-0.26;100.00;99877.31;5049602;28;20500;-69
2021/01/01 05:50:35;;;;;;;;;;;;;;;-0.23;100.00;99882.50;5051019;28;19929;-69
2021/01/01 05:53:11;;;;;;;;;;;;;;;-0.24;100.00;99872.78;5051285;28;20057;-69
2021/01/01 05:55:37;;;;;;;;;;;;;;;-0.26;100.00;99876.44;5050917;28;20361;-69
2021/01/01 05:58:02;;;;;;;;;;;;;;;-0.28;100.00;99876.53;5051137;28;19933;-68
2021/01/01 06:00:30;;;;;;;;;;;;;;;-0.26;100.00;99877.31;5050212;28;20022;-69
2021/01/01 06:02:57;;;;;;;;;;;;;;;-0.23;100.00;99877.16;5040969;28;19925;-70
2021/01/01 06:05:25;;;;;;;;;;;;;;;-0.27;100.00;99874.72;5049894;28;20339;-70
2021/01/01 06:07:53;;;;;;;;;;;;;;;-0.25;100.00;99879.03;5037091;28;19972;-70
2021/01/01 06:10:22;;;;;;;;;;;;;;;-0.22;100.00;99884.22;5042093;28;20304;-70
2021/01/01 06:12:51;;;;;;;;;;;;;;;-0.18;100.00;99879.59;5030847;28;20050;-70
2021/01/01 06:15:21;;;;;;;;;;;;;;;-0.19;100.00;99881.41;5031731;28;19948;-70
2021/01/01 06:17:48;;;;;;;;;;;;;;;-0.15;100.00;99883.91;5050695;28;19979;-70
2021/01/01 06:20:17;;;;;;;;;;;;;;;-0.13;100.00;99884.69;5050524;28;19932;-69
2021/01/01 06:22:57;;;;;;;;;;;;;;;-0.19;100.00;99889.41;5031618;28;20022;-69
2021/01/01 06:25:23;;;;;;;;;;;;;;;-0.23;100.00;99887.84;5035175;28;20007;-69
2021/01/01 06:27:49;;;;;;;;;;;;;;;-0.22;100.00;99889.53;5054050;28;20015;-69
2021/01/01 06:30:16;;;;;;;;;;;;;;;-0.24;100.00;99896.78;5054261;28;19928;-70
2021/01/01 06:32:42;;;;;;;;;;;;;;;-0.24;100.00;99896.78;5054393;28;20011;-70
2021/01/01 06:35:12;;;;;;;;;;;;;;;-0.25;100.00;99900.38;5054238;28;19925;-70
2021/01/01 06:37:39;;;;;;;;;;;;;;;-0.31;100.00;99902.47;5054184;28;20011;-70
2021/01/01 06:40:06;;;;;;;;;;;;;;;-0.33;100.00;99907.91;5053933;28;19924;-70
2021/01/01 06:42:57;;;;;;;;;;;;;;;-0.38;100.00;99907.25;5053702;28;19964;-70
2021/01/01 06:45:31;;;;;;;;;;;;;;;-0.44;100.00;99905.75;5023659;28;20070;-70
2021/01/01 06:47:57;;;;;;;;;;;;;;;-0.44;100.00;99910.22;5034067;28;19925;-70
2021/01/01 06:50:26;;;;;;;;;;;;;;;-0.46;100.00;99917.44;5046855;28;19931;-69
2021/01/01 06:53:00;;;;;;;;;;;;;;;-0.43;100.00;99918.13;5054011;28;19929;-71
2021/01/01 06:55:29;;;;;;;;;;;;;;;-0.42;100.00;99916.34;5052484;28;20016;-69
2021/01/01 06:57:55;;;;;;;;;;;;;;;-0.41;100.00;99916.25;5053295;28;19932;-70
2021/01/01 07:00:36;;;;;;;;;;;;;;;-0.43;100.00;99917.28;5053112;28;20011;-69
2021/01/01 07:03:22;;;;;;;;;;;;;;;-0.46;100.00;99923.63;5052180;28;20358;-69
2021/01/01 07:05:48;;;;;;;;;;;;;;;-0.49;100.00;99922.91;5053318;28;20410;-69
2021/01/01 07:08:28;;;;;;;;;;;;;;;-0.49;100.00;99925.56;5053513;28;19932;-69
2021/01/01 07:10:55;;;;;;;;;;;;;;;-0.51;100.00;99929.19;5053467;28;20006;-69
2021/01/01 07:13:21;;;;;;;;;;;;;;;-0.54;100.00;99929.31;5038398;28;19954;-70
2021/01/01 07:15:46;;;;;;;;;;;;;;;-0.52;100.00;99929.28;5052829;28;19924;-69
2021/01/01 07:18:17;;;;;;;;;;;;;;;-0.54;100.00;99933.78;5052285;28;19925;-70
2021/01/01 07:20:44;;;;;;;;;;;;;;;-0.54;100.00;99933.78;5053360;28;20006;-70
2021/01/01 07:23:09;;;;;;;;;;;;;;;-0.58;100.00;99935.72;5053489;28;19960;-70
2021/01/01 07:25:36;;;;;;;;;;;;;;;-0.57;100.00;99941.94;5052770;28;19974;-69
2021/01/01 07:28:04;;;;;;;;;;;;;;;-0.55;100.00;99940.06;5053368;28;19929;-70
2021/01/01 07:30:31;;;;;;;;;;;;;;;-0.60;100.00;99937.63;5043081;28;20012;-69
2021/01/01 07:32:57;;;;;;;;;;;;;;;-0.62;100.00;99942.16;5032895;28;19925;-70
2021/01/01 07:35:22;;;;;;;;;;;;;;;-0.64;100.00;99951.16;5032946;28;19931;-69
2021/01/01 07:37:48;;;;;;;;;;;;;;;-0.63;100.00;99950.22;5035768;28;19929;-69
2021/01/01 07:40:15;;;;;;;;;;;;;;;-0.61;100.00;99951.03;5046002;28;19979;-69
2021/01/01 07:42:46;;;;;;;;;;;;;;;-0.60;100.00;99953.63;5052600;28;20039;-69
2021/01/01 07:45:14;;;;;;;;;;;;;;;-0.59;100.00;99958.03;5052835;28;20025;-70
2021/01/01 07:47:42;;;;;;;;;;;;;;;-0.49;100.00;99969.09;5052469;28;19948;-70
2021/01/01 07:50:11;;;;;;;;;;;;;;;-0.44;100.00;99974.22;5052406;28;20485;-70
2021/01/01 07:52:37;;;;;;;;;;;;;;;-0.39;100.00;99962.41;5052570;28;19971;-69
2021/01/01 07:55:03;;;;;;;;;;;;;;;-0.37;100.00;99965.00;5052655;28;20341;-69
2021/01/01 07:57:28;;;;;;;;;;;;;;;-0.40;100.00;99962.44;5052314;28;19959;-70
2021/01/01 07:59:55;;;;;;;;;;;;;;;-0.41;100.00;99958.94;5052354;28;19975;-70
2021/01/01 08:02:22;;;;;;;;;;;;;;;-0.45;100.00;99964.50;5052150;28;19959;-70
2021/01/01 08:04:48;;;;;;;;;;;;;;;-0.45;100.00;99969.84;5049254;28;19925;-69
2021/01/01 08:07:20;;;;;;;;;;;;;;;-0.47;100.00;99969.88;5052106;28;19952;-70
2021/01/01 08:09:46;;;;;;;;;;;;;;;-0.46;100.00;99968.09;5051637;28;20036;-70
2021/01/01 08:12:12;;;;;;;;;;;;;;;-0.44;100.00;99975.09;5052137;28;19929;-70
2021/01/01 08:14:38;;;;;;;;;;;;;;;-0.46;100.00;99976.94;5052221;28;20020;-69
2021/01/01 08:17:16;;;;;;;;;;;;;;;-0.43;100.00;99981.28;5051952;28;19932;-70
2021/01/01 08:19:43;;;;;;;;;;;;;;;-0.37;100.00;99981.00;5051611;28;19931;-70
2021/01/01 08:22:10;;;;;;;;;;;;;;;-0.32;100.00;99988.75;5052007;28;20024;-70
2021/01/01 08:24:41;;;;;;;;;;;;;;;-0.30;100.00;99992.25;5051722;28;20032;-69
2021/01/01 08:27:06;;;;;;;;;;;;;;;-0.28;100.00;99988.56;5052152;28;20015;-70
2021/01/01 08:29:33;;;;;;;;;;;;;;;-0.27;100.00;99982.25;5051741;28;19931;-69
2021/01/01 08:31:59;;;;;;;;;;;;;;;-0.23;100.00;99993.66;5051480;28;20335;-70
2021/01/01 08:34:25;;;;;;;;;;;;;;;-0.23;100.00;99988.31;5051112;28;20023;-69
2021/01/01 08:36:52;;;;;;;;;;;;;;;-0.19;100.00;99984.56;5049782;28;19935;-69
2021/01/01 08:39:18;;;;;;;;;;;;;;;-0.17;100.00;99988.91;5049196;28;20405;-70
2021/01/01 08:41:45;;;;;;;;;;;;;;;-0.11;100.00;99994.88;5050633;28;19928;-69
2021/01/01 08:44:11;;;;;;;;;;;;;;;-0.17;100.00;99999.56;5049407;28;20297;-69
2021/01/01 08:46:37;;;;;;;;;;;;;;;-0.13;100.00;99989.63;5049995;28;19929;-70
2021/01/01 08:49:17;;;;;;;;;;;;;;;-0.11;100.00;100000.22;5050734;28;19935;-69
2021/01/01 08:51:43;;;;;;;;;;;;;;;-0.06;100.00;100003.53;5047664;28;19978;-69
2021/01/01 08:54:11;;;;;;;;;;;;;;;0.04;100.00;100001.25;5033070;28;20382;-70
2021/01/01 08:56:36;;;;;;;;;;;;;;;0.11;100.00;100005.38;5050884;28;20020;-70
2021/01/01 08:59:08;;;;;;;;;;;;;;;0.20;100.00;100004.03;5050979;28;20011;-69
2021/01/01 09:01:34;;;;;;;;;;;;;;;0.28;100.00;100010.75;5050198;28;19967;-69
2021/01/01 09:04:01;;;;;;;;;;;;;;;0.27;100.00;100010.81;5049568;28;20302;-69
2021/01/01 09:06:26;;;;;;;;;;;;;;;0.40;100.00;100019.06;5039581;28;19957;-69
2021/01/01 09:09:02;;;;;;;;;;;;;;;0.46;100.00;100013.41;5046809;28;19998;-69
2021/01/01 09:11:29;;;;;;;;;;;;;;;0.42;100.00;100020.72;5046883;28;20039;-70
2021/01/01 09:13:58;;;;;;;;;;;;;;;0.50;100.00;100015.84;5051276;28;19960;-69
2021/01/01 09:16:24;;;;;;;;;;;;;;;0.56;100.00;100017.38;5050364;28;19994;-70
2021/01/01 09:18:50;;;;;;;;;;;;;;;0.63;100.00;100020.59;5050045;28;19928;-69
2021/01/01 09:21:16;;;;;;;;;;;;;;;0.61;100.00;100022.47;5049444;28;19936;-69
2021/01/01 09:23:50;;;;;;;;;;;;;;;0.62;100.00;100025.03;5050686;28;20390;-68
2021/01/01 09:26:20;;;;;;;;;;;;;;;0.58;100.00;100017.28;5050092;28;20392;-69
2021/01/01 09:28:48;;;;;;;;;;;;;;;0.61;100.00;100023.31;5050764;28;19983;-69
2021/01/01 09:31:15;;;;;;;;;;;;;;;0.74;100.00;100020.88;5050912;28;19925;-69
2021/01/01 09:33:41;;;;;;;;;;;;;;;0.77;100.00;100031.41;5051102;28;20019;-69
2021/01/01 09:36:07;;;;;;;;;;;;;;;0.88;100.00;100036.19;5050787;28;20290;-69
2021/01/01 09:38:32;;;;;;;;;;;;;;;0.95;100.00;100031.38;5050675;28;19928;-68
2021/01/01 09:40:58;;;;;;;;;;;;;;;1.02;100.00;100029.25;5050074;28;20291;-68
2021/01/01 09:43:24;;;;;;;;;;;;;;;1.06;100.00;100028.19;5050786;28;19929;-68
2021/01/01 09:45:51;;;;;;;;;;;;;;;1.00;100.00;100030.22;5049762;28;19936;-69
2021/01/01 09:48:17;;;;;;;;;;;;;;;1.06;100.00;100041.53;5047350;28;19975;-68
2021/01/01 09:50:43;;;;;;;;;;;;;;;1.05;100.00;100037.13;5050115;28;19928;-68
2021/01/01 09:53:08;;;;;;;;;;;;;;;1.00;100.00;100037.34;5050683;28;19959;-68
2021/01/01 09:55:34;;;;;;;;;;;;;;;0.96;100.00;100034.00;5050745;28;19925;-67
2021/01/01 09:58:00;;;;;;;;;;;;;;;1.00;100.00;100042.69;5053957;28;20283;-67
2021/01/01 10:00:26;;;;;;;;;;;;;;;0.99;100.00;100039.19;5054440;28;19936;-68
2021/01/01 10:02:52;;;;;;;;;;;;;;;0.93;100.00;100035.97;5051779;28;20387;-67
2021/01/01 10:05:18;;;;;;;;;;;;;;;0.93;100.00;100038.63;5054854;28;19967;-67
2021/01/01 10:07:44;;;;;;;;;;;;;;;1.00;100.00;100038.25;5054768;28;19929;-68
2021/01/01 10:10:10;;;;;;;;;;;;;;;1.11;100.00;100037.69;5054716;28;19932;-69
2021/01/01 10:12:36;;;;;;;;;;;;;;;1.25;100.00;100042.28;5054610;28;19960;-69
2021/01/01 10:15:03;;;;;;;;;;;;;;;1.33;100.00;100040.03;5054730;28;20354;-69
2021/01/01 10:17:29;;;;;;;;;;;;;;;1.44;100.00;100039.50;5054599;28;19931;-69
2021/01/01 10:19:56;;;;;;;;;;;;;;;1.48;100.00;100040.16;5054454;28;19925;-69
2021/01/01 10:22:22;;;;;;;;;;;;;;;1.60;100.00;100034.16;5054667;28;19928;-68
2021/01/01 10:24:48;;;;;;;;;;;;;;;1.65;100.00;100029.41;5054565;28;19968;-69
2021/01/01 10:27:14;;;;;;;;;;;;;;;1.77;100.00;100027.00;5054445;28;19924;-68
2021/01/01 10:29:40;;;;;;;;;;;;;;;1.83;100.00;100032.88;5053320;28;20386;-68
2021/01/01 10:32:07;;;;;;;;;;;;;;;1.87;100.00;100028.22;5054562;28;19936;-69
2021/01/01 10:34:33;;;;;;;;;;;;;;;1.92;100.00;100031.50;5054061;28;20027;-69
2021/01/01 10:36:59;;;;;;;;;;;;;;;1.98;100.00;100027.63;5053979;28;19925;-68
2021/01/01 10:39:26;;;;;;;;;;;;;;;1.95;100.00;100030.44;5054289;28;20007;-69
2021/01/01 10:41:52;;;;;;;;;;;;;;;1.91;100.00;100027.09;5054287;28;19924;-68
2021/01/01 10:44:18;;;;;;;;;;;;;;;1.89;100.00;100028.16;5054307;28;19925;-69
2021/01/01 10:46:47;;;;;;;;;;;;;;;1.83;100.00;100023.97;5053944;28;19925;-69
2021/01/01 10:49:13;;;;;;;;;;;;;;;1.73;100.00;100030.81;5054069;28;19936;-69
2021/01/01 10:51:38;;;;;;;;;;;;;;;1.67;100.00;100040.00;5054089;28;20322;-69
2021/01/01 10:54:05;;;;;;;;;;;;;;;1.64;100.00;100037.53;5053691;28;19931;-69
2021/01/01 10:56:31;;;;;;;;;;;;;;;1.55;100.00;100035.34;5053743;28;19971;-69
2021/01/01 10:58:57;;;;;;;;;;;;;;;1.53;100.00;100047.97;5053833;28;19925;-69
2021/01/01 11:01:23;;;;;;;;;;;;;;;1.61;100.00;100033.19;5053910;28;19932;-69
2021/01/01 11:03:49;;;;;;;;;;;;;;;1.59;100.00;100028.88;5053925;28;19967;-69
2021/01/01 11:06:15;;;;;;;;;;;;;;;1.65;100.00;100025.88;5053589;28;19956;-69
2021/01/01 11:08:41;;;;;;;;;;;;;;;1.62;100.00;100029.59;5052921;28;19925;-69
2021/01/01 11:11:09;;;;;;;;;;;;;;;1.63;100.00;100030.44;5052889;28;19932;-70
2021/01/01 11:13:38;;;;;;;;;;;;;;;1.60;100.00;100028.78;5046302;28;20024;-69
2021/01/01 12:19:53;;;;;;;;;;;;;;;1.72;100.00;100027.25;5051842;28;19931;-69
2021/01/01 12:22:22;;;;;;;;;;;;;;;1.73;100.00;100036.16;5052195;28;19955;-69
2021/01/01 12:24:48;;;;;;;;;;;;;;;1.76;100.00;100036.84;5045636;28;19929;-69
2021/01/01 12:27:17;;;;;;;;;;;;;;;1.77;100.00;100041.25;5052035;28;20084;-69
2021/01/01 12:29:44;;;;;;;;;;;;;;;1.67;100.00;100037.34;5047789;28;19968;-69
2021/01/01 12:32:11;;;;;;;;;;;;;;;1.70;100.00;100037.19;5051325;28;20597;-69
2021/01/01 12:34:37;;;;;;;;;;;;;;;1.70;100.00;100030.97;5051596;28;20610;-69
2021/01/01 12:37:03;;;;;;;;;;;;;;;1.73;100.00;100039.69;5045804;28;19975;-69
2021/01/01 12:39:29;;;;;;;;;;;;;;;1.73;100.00;100037.00;5051088;28;19925;-69
2021/01/01 12:41:54;;;;;;;;;;;;;;;1.72;100.00;100040.63;5051334;28;19932;-69
2021/01/01 12:44:20;;;;;;;;;;;;;;;1.66;100.00;100035.63;5051464;28;20323;-69
2021/01/01 12:46:46;;;;;;;;;;;;;;;1.50;100.00;100041.81;5051485;28;19929;-69
2021/01/01 12:49:13;;;;;;;;;;;;;;;1.53;100.00;100047.97;5051237;28;19932;-69
2021/01/01 12:51:39;;;;;;;;;;;;;;;1.60;100.00;100054.69;5051223;28;20019;-69
2021/01/01 12:54:05;;;;;;;;;;;;;;;1.60;100.00;100044.84;5051536;28;20401;-69
2021/01/01 12:56:30;;;;;;;;;;;;;;;1.60;100.00;100046.66;5050837;28;20050;-69
2021/01/01 12:58:56;;;;;;;;;;;;;;;1.67;100.00;100048.94;5050819;28;20360;-69
2021/01/01 13:01:22;;;;;;;;;;;;;;;1.69;100.00;100056.88;5051518;28;19932;-69
2021/01/01 13:03:48;;;;;;;;;;;;;;;1.63;100.00;100049.16;5051374;28;19924;-69
2021/01/01 13:06:17;;;;;;;;;;;;;;;1.63;100.00;100054.50;5047676;28;20399;-69
2021/01/01 13:08:43;;;;;;;;;;;;;;;1.68;100.00;100049.78;5046354;28;20090;-69
2021/01/01 13:11:08;;;;;;;;;;;;;;;1.60;100.00;100054.69;5050766;28;19986;-70
2021/01/01 13:13:34;;;;;;;;;;;;;;;1.61;100.00;100061.78;5050782;28;20382;-69
2021/01/01 13:16:00;;;;;;;;;;;;;;;1.56;100.00;100059.34;5050857;28;19925;-69
2021/01/01 13:18:26;;;;;;;;;;;;;;;1.57;100.00;100061.06;5051250;28;19929;-70
2021/01/01 13:20:52;;;;;;;;;;;;;;;1.60;100.00;100068.06;5048223;28;19929;-70
2021/01/01 13:23:18;;;;;;;;;;;;;;;1.59;100.00;100063.66;5051033;28;19929;-69
2021/01/01 13:25:44;;;;;;;;;;;;;;;1.63;100.00;100063.44;5050975;28;20019;-69
2021/01/01 13:28:10;;;;;;;;;;;;;;;1.66;100.00;100065.91;5050722;28;19932;-70
2021/01/01 13:30:36;;;;;;;;;;;;;;;1.74;100.00;100053.91;5051087;28;19925;-70
2021/01/01 13:33:01;;;;;;;;;;;;;;;1.83;100.00;100062.31;5056349;28;20294;-69
2021/01/01 13:35:27;;;;;;;;;;;;;;;1.84;100.00;100063.19;5057724;28;19931;-70
2021/01/01 13:37:53;;;;;;;;;;;;;;;1.93;100.00;100064.50;5057195;28;19925;-70
2021/01/01 13:40:20;;;;;;;;;;;;;;;2.03;100.00;100070.19;5057155;28;19924;-70
2021/01/01 13:42:49;;;;;;;;;;;;;;;2.04;100.00;100070.09;5057200;28;20396;-69